^^
Station Historical Data
Daily Summary for November 5, 2017 Units:  Metric    English   Both
« Previous Day
Next Day »
Daily Weekly Monthly Yearly Custom
  High: Low: Average:
Temperature: 37.8 °C 28.3 °C 33.8 °C
Dew Point: 7.6 °C 4.6 °C 6.1 °C
Humidity: 26% 14% 18%
Wind Speed: 20.9km/h 0km/h 10.5km/h
Wind Gust: 24.1km/h - -
Wind- - SSW
Pressure: 1010.4 hPa 1007 hPa -
Precipitation: 0 mm    
Historical Graphs
 
 
Tabular Data for November 5, 2017
Time Temperature Dew Point Pressure Wind Wind Speed Wind Gust Humidity Rainfall Rate (Hourly) solar Conditions
13:21 36.6 °C 7.6 °C 1010.4 hPa Calm   4.8 km/h 17% 0 mm 921.0 W/m2
13:30 36.6 °C 6.7 °C 1010 hPa Calm   6.4 km/h 16% 0 mm 907.0 W/m2
13:35 36.3 °C 6.5 °C 1010 hPa Calm   4.8 km/h 16% 0 mm 900.0 W/m2
13:40 36.4 °C 6.5 °C 1010 hPa SSW 6.4 km/h 14.5 km/h 16% 0 mm 898.0 W/m2
13:46 36.6 °C 6.7 °C 1010 hPa Calm     16% 0 mm 891.0 W/m2
14:08 36.4 °C 6.5 °C 1009.7 hPa SSW 17.7 km/h 17.7 km/h 16% 0 mm 863.0 W/m2
14:19 36.1 °C 6.3 °C 1009.4 hPa Calm   12.9 km/h 16% 0 mm 847.0 W/m2
14:34 36.8 °C 6.9 °C 1009 hPa SW 9.7 km/h 9.7 km/h 16% 0 mm 819.0 W/m2
15:04 37.1 °C 6.2 °C 1008.7 hPa Calm   8 km/h 15% 0 mm 752.0 W/m2
15:19 37.2 °C 6.2 °C 1008.4 hPa SW 6.4 km/h 11.3 km/h 15% 0 mm 714.0 W/m2
15:45 37.4 °C 6.4 °C 1008 hPa SW 1.4 km/h 3.2 km/h 15% 0 mm 645.0 W/m2
16:01 37.5 °C 5.5 °C 1007.7 hPa Calm   3.2 km/h 14% 0 mm 601.0 W/m2
16:17 37.8 °C 5.7 °C 1007.7 hPa SW 4.7 km/h 6.4 km/h 14% 0 mm 552.0 W/m2
16:33 37.7 °C 5.6 °C 1007.3 hPa SW 1.4 km/h 3.2 km/h 14% 0 mm 503.0 W/m2
16:54 37.6 °C 5.6 °C 1007.3 hPa SW 7.9 km/h 9.7 km/h 14% 0 mm 436.0 W/m2
17:11 37.6 °C 5.6 °C 1007 hPa Calm     14% 0 mm 362.0 W/m2
17:20 37.8 °C 5.7 °C 1007 hPa SSW 1.4 km/h 12.9 km/h 14% 0 mm 330.0 W/m2
17:30 37.8 °C 5.7 °C 1007 hPa SSW 16.3 km/h 16.3 km/h 14% 0 mm 295.0 W/m2
17:40 37.5 °C 5.5 °C 1007 hPa SSW 13 km/h 14.5 km/h 14% 0 mm 262.0 W/m2
17:51 37.4 °C 5.4 °C 1007 hPa SSW 7.9 km/h 17.7 km/h 14% 0 mm 229.0 W/m2
18:18 37.1 °C 5.2 °C 1007 hPa SSW 13 km/h 19.3 km/h 14% 0 mm 125.0 W/m2
18:32 36.8 °C 5.9 °C 1007 hPa SSW 11.1 km/h 14.5 km/h 15% 0 mm 72.0 W/m2
18:49 36.4 °C 5.6 °C 1007 hPa SSW 11.1 km/h 12.9 km/h 15% 0 mm 28.0 W/m2
19:13 35.8 °C 5.1 °C 1007.3 hPa SSW 11.1 km/h 11.3 km/h 15% 0 mm 5.0 W/m2
19:25 35.3 °C 5.7 °C 1007.3 hPa SSW 9.7 km/h 11.3 km/h 16% 0 mm 0.0 W/m2
19:32 35.2 °C 5.6 °C 1007.3 hPa SSW 6.4 km/h 12.9 km/h 16% 0 mm 0.0 W/m2
19:41 34.9 °C 6.2 °C 1007.7 hPa SSW 16.3 km/h 17.7 km/h 17% 0 mm 0.0 W/m2
19:54 34.7 °C 6.1 °C 1007.7 hPa SSW 16.3 km/h 17.7 km/h 17% 0 mm 0.0 W/m2
20:08 34.2 °C 4.8 °C 1008 hPa SSW 11.1 km/h 19.3 km/h 16% 0 mm 0.0 W/m2
20:49 33.3 °C 4.9 °C 1008.4 hPa South 19.5 km/h 19.5 km/h 17% 0 mm 0.0 W/m2
21:03 32.9 °C 4.6 °C 1008.4 hPa South 16.3 km/h 17.7 km/h 17% 0 mm 0.0 W/m2
21:18 32.7 °C 5.3 °C 1008.4 hPa South 17.7 km/h 22.5 km/h 18% 0 mm 0.0 W/m2
21:30 32.6 °C 5.2 °C 1008.4 hPa SSE 14.3 km/h 16.1 km/h 18% 0 mm 0.0 W/m2
21:41 32.4 °C 5 °C 1008.4 hPa SSE 17.7 km/h 24.1 km/h 18% 0 mm 0.0 W/m2
21:55 32.4 °C 5 °C 1008.4 hPa SSE 14.3 km/h 19.3 km/h 18% 0 mm 0.0 W/m2
22:10 31.7 °C 5.2 °C 1008.4 hPa SSE 14.3 km/h 14.5 km/h 19% 0 mm 0.0 W/m2
22:24 30.6 °C 5.8 °C 1008.4 hPa SW 16.3 km/h 22.5 km/h 21% 0 mm 0.0 W/m2
22:37 30.2 °C 6.1 °C 1008.4 hPa SW 13 km/h 16.1 km/h 22% 0 mm 0.0 W/m2
22:44 29.8 °C 6.4 °C 1008.7 hPa SW 17.7 km/h 19.3 km/h 23% 0 mm 0.0 W/m2
22:49 29.7 °C 6.4 °C 1008.7 hPa SW 9.7 km/h 16.1 km/h 23% 0 mm 0.0 W/m2
22:54 29.6 °C 6.9 °C 1008.7 hPa SW 9.7 km/h 14.5 km/h 24% 0 mm 0.0 W/m2
23:04 29.2 °C 7.2 °C 1008.7 hPa SW 14.3 km/h 16.1 km/h 25% 0 mm 0.0 W/m2
23:09 29.1 °C 7.1 °C 1008.7 hPa SW 13 km/h 19.3 km/h 25% 0 mm 0.0 W/m2
23:14 29.1 °C 7.1 °C 1008.7 hPa SW 11.1 km/h 16.1 km/h 25% 0 mm 0.0 W/m2
23:19 28.9 °C 6.9 °C 1008.7 hPa SW 13 km/h 16.1 km/h 25% 0 mm 0.0 W/m2
23:29 28.8 °C 6.8 °C 1008.4 hPa SW 13 km/h 17.7 km/h 25% 0 mm 0.0 W/m2
23:34 28.8 °C 6.8 °C 1008.4 hPa SW 16.3 km/h 17.7 km/h 25% 0 mm 0.0 W/m2
23:39 28.7 °C 7.3 °C 1008.4 hPa SW 14.3 km/h 20.9 km/h 26% 0 mm 0.0 W/m2
23:44 28.6 °C 7.2 °C 1008.4 hPa SW 14.3 km/h 17.7 km/h 26% 0 mm 0.0 W/m2
23:49 28.4 °C 7 °C 1008.4 hPa SW 14.3 km/h 14.5 km/h 26% 0 mm 0.0 W/m2
23:54 28.3 °C 7 °C 1008.4 hPa SW 19.5 km/h 20.9 km/h 26% 0 mm 0.0 W/m2
23:59 28.4 °C 7 °C 1008.4 hPa SW 20.9 km/h 22.5 km/h 26% 0 mm 0.0 W/m2
Canyon Roadhouse, Fishriver Canyon, Namibia
Compliments of Weather Underground - 1.75 mb